createdAt,value
2023-01-04T00:01:32.205Z,0.85
2023-01-04T00:04:00.636Z,0.95
2023-01-04T00:06:30.889Z,1.17
2023-01-04T00:08:59.133Z,1.20
2023-01-04T00:11:27.501Z,0.85
2023-01-04T00:13:57.876Z,0.88
2023-01-04T00:16:26.831Z,1.52
2023-01-04T00:18:55.704Z,1.02
2023-01-04T00:21:24.561Z,2.13
2023-01-04T00:23:55.371Z,2.45
2023-01-04T00:26:24.764Z,2.97
2023-01-04T00:28:56.332Z,2.70
2023-01-04T00:31:25.474Z,3.50
2023-01-04T00:33:55.498Z,2.22
2023-01-04T00:36:24.005Z,3.55
2023-01-04T00:39:07.763Z,2.80
2023-01-04T00:41:58.048Z,1.53
2023-01-04T00:44:26.182Z,0.88
2023-01-04T00:46:54.632Z,1.10
2023-01-04T00:49:22.907Z,1.00
2023-01-04T00:51:51.160Z,1.67
2023-01-04T00:54:21.340Z,1.05
2023-01-04T00:56:49.635Z,1.38
2023-01-04T00:59:19.423Z,2.03
2023-01-04T01:01:48.288Z,0.68
2023-01-04T01:04:18.526Z,1.70
2023-01-04T01:06:46.912Z,1.92
2023-01-04T01:09:15.412Z,1.00
2023-01-04T01:11:45.399Z,1.08
2023-01-04T01:14:17.555Z,1.30
2023-01-04T01:16:55.989Z,1.10
2023-01-04T01:19:25.993Z,1.90
2023-01-04T01:21:54.414Z,1.23
2023-01-04T01:24:22.810Z,1.02
2023-01-04T01:26:52.464Z,0.70
2023-01-04T01:29:20.891Z,0.82
2023-01-04T01:31:49.205Z,1.15
2023-01-04T01:34:17.583Z,1.55
2023-01-04T01:36:45.883Z,1.00
2023-01-04T01:39:14.151Z,1.25
2023-01-04T01:41:42.408Z,0.70
2023-01-04T01:44:25.532Z,0.70
2023-01-04T01:46:56.458Z,0.73
2023-01-04T01:49:27.288Z,1.20
2023-01-04T01:51:56.659Z,1.88
2023-01-04T01:54:27.763Z,1.15
2023-01-04T01:56:57.679Z,1.02
2023-01-04T01:59:26.246Z,0.95
2023-01-04T02:01:55.949Z,1.48
2023-01-04T02:04:24.331Z,1.00
2023-01-04T02:06:53.731Z,0.80
2023-01-04T02:09:23.064Z,1.52
2023-01-04T02:11:51.285Z,0.75
2023-01-04T02:14:29.882Z,0.75
2023-01-04T02:17:04.685Z,0.98
2023-01-04T02:19:44.746Z,0.50
2023-01-04T02:22:26.586Z,0.80
2023-01-04T02:25:05.151Z,0.95
2023-01-04T02:27:41.671Z,0.60
2023-01-04T02:30:19.943Z,1.15
2023-01-04T02:32:52.884Z,1.70
2023-01-04T02:35:24.868Z,1.30
2023-01-04T02:37:59.094Z,0.65
2023-01-04T02:40:30.780Z,1.33
2023-01-04T02:43:20.463Z,1.10
2023-01-04T02:45:53.623Z,0.68
2023-01-04T02:48:40.704Z,0.60
2023-01-04T02:51:23.815Z,1.35
2023-01-04T02:53:52.156Z,2.00
2023-01-04T02:56:35.303Z,1.20
2023-01-04T02:59:12.648Z,0.38
2023-01-04T03:02:00.741Z,1.30
2023-01-04T03:05:07.127Z,1.30
2023-01-04T03:07:39.246Z,0.80
2023-01-04T03:10:09.441Z,1.65
2023-01-04T03:12:39.661Z,1.55
2023-01-04T03:15:12.128Z,0.52
2023-01-04T03:17:43.658Z,1.48
2023-01-04T03:20:14.043Z,1.42
2023-01-04T03:23:01.347Z,1.15
2023-01-04T03:25:48.809Z,0.60
2023-01-04T03:28:36.670Z,1.42
2023-01-04T03:31:25.858Z,1.23
2023-01-04T03:34:12.023Z,1.08
2023-01-04T03:36:46.423Z,1.30
2023-01-04T03:39:35.759Z,0.50
2023-01-04T03:42:24.952Z,0.50
2023-01-04T03:45:15.482Z,0.90
2023-01-04T03:48:03.455Z,0.88
2023-01-04T03:50:34.536Z,1.13
2023-01-04T03:53:04.431Z,1.60
2023-01-04T03:55:33.133Z,1.05
2023-01-04T03:58:01.690Z,1.40
2023-01-04T04:00:30.014Z,1.30
2023-01-04T04:03:07.194Z,1.33
2023-01-04T04:05:53.978Z,0.70
2023-01-04T04:08:28.161Z,0.88
2023-01-04T04:10:57.074Z,1.13
2023-01-04T04:13:25.850Z,0.85
2023-01-04T04:15:55.051Z,0.80
2023-01-04T04:18:23.412Z,1.27
2023-01-04T04:20:59.006Z,1.17
2023-01-04T04:23:28.637Z,1.00
2023-01-04T04:25:56.899Z,1.58
2023-01-04T04:28:25.225Z,1.08
2023-01-04T04:30:53.706Z,0.93
2023-01-04T04:33:21.969Z,0.68
2023-01-04T04:35:52.469Z,0.60
2023-01-04T04:38:21.062Z,1.10
2023-01-04T04:41:08.113Z,1.02
2023-01-04T04:43:36.529Z,0.77
2023-01-04T04:46:05.225Z,2.13
2023-01-04T04:48:33.538Z,0.80
2023-01-04T04:51:01.825Z,1.13
2023-01-04T04:53:30.037Z,0.85
2023-01-04T04:55:59.809Z,0.40
2023-01-04T04:58:28.102Z,1.40
2023-01-04T05:00:56.363Z,0.40
2023-01-04T05:03:24.712Z,0.85
2023-01-04T05:05:53.056Z,1.00
2023-01-04T05:08:21.297Z,1.77
2023-01-04T05:10:49.926Z,0.80
2023-01-04T05:13:18.590Z,0.40
2023-01-04T05:15:48.026Z,0.88
2023-01-04T05:18:17.104Z,0.52
2023-01-04T05:20:45.365Z,0.70
2023-01-04T05:23:14.556Z,0.38
2023-01-04T05:25:43.000Z,0.40
2023-01-04T05:28:11.729Z,0.55
2023-01-04T05:30:53.125Z,0.28
2023-01-04T05:33:22.769Z,0.63
2023-01-04T05:35:51.109Z,0.75
2023-01-04T05:38:19.475Z,0.77
2023-01-04T05:40:47.780Z,0.25
2023-01-04T05:43:15.293Z,1.15
2023-01-04T05:45:46.562Z,0.77
2023-01-04T05:48:14.844Z,0.52
2023-01-04T05:50:43.438Z,0.80
2023-01-04T05:53:11.754Z,0.85
2023-01-04T05:55:40.073Z,0.85
2023-01-04T05:58:08.616Z,0.30
2023-01-04T06:00:36.999Z,0.30
2023-01-04T06:03:06.893Z,0.35
2023-01-04T06:05:35.272Z,0.60
2023-01-04T06:08:03.571Z,0.50
2023-01-04T06:10:31.802Z,0.20
2023-01-04T06:13:00.100Z,0.55
2023-01-04T06:15:28.303Z,0.30
2023-01-04T06:17:56.556Z,0.50
2023-01-04T06:20:26.093Z,0.30
2023-01-04T06:22:54.382Z,0.13
2023-01-04T06:25:22.666Z,0.30
2023-01-04T06:27:51.015Z,0.22
2023-01-04T06:30:19.365Z,0.30
2023-01-04T06:32:47.606Z,0.85
2023-01-04T06:35:15.956Z,0.10
2023-01-04T06:37:45.546Z,0.43
2023-01-04T06:40:13.922Z,0.32
2023-01-04T06:42:48.006Z,0.60
2023-01-04T06:45:17.198Z,0.45
2023-01-04T06:47:45.675Z,0.60
2023-01-04T06:50:13.931Z,0.73
2023-01-04T06:52:43.053Z,0.20
2023-01-04T06:55:12.798Z,0.15
2023-01-04T06:57:41.017Z,0.50
2023-01-04T07:00:09.904Z,0.10
2023-01-04T07:02:38.278Z,0.50
2023-01-04T07:05:06.944Z,0.45
2023-01-04T07:07:35.674Z,0.20
2023-01-04T07:10:09.550Z,0.70
2023-01-04T07:12:40.090Z,0.73
2023-01-04T07:15:38.901Z,0.47
2023-01-04T07:17:57.257Z,0.20
2023-01-04T07:20:25.555Z,0.55
2023-01-04T07:22:53.955Z,0.85
2023-01-04T07:25:22.293Z,0.60
2023-01-04T07:27:53.937Z,0.85
2023-01-04T07:30:22.841Z,0.30
2023-01-04T07:32:51.488Z,0.32
2023-01-04T07:35:19.820Z,0.30
2023-01-04T07:37:53.790Z,0.38
2023-01-04T07:40:25.997Z,0.22
2023-01-04T07:42:59.171Z,0.10
2023-01-04T07:45:27.953Z,0.25
2023-01-04T07:47:56.272Z,0.25
2023-01-04T07:50:24.539Z,0.22
2023-01-04T07:52:52.756Z,0.32
2023-01-04T07:55:21.048Z,0.30
2023-01-04T07:57:49.361Z,0.30
2023-01-04T08:00:19.479Z,0.40
2023-01-04T08:02:50.492Z,0.20
2023-01-04T08:05:19.126Z,0.47
2023-01-04T08:07:47.455Z,0.68
2023-01-04T08:10:16.068Z,0.22
2023-01-04T08:12:44.369Z,0.40
2023-01-04T08:15:14.852Z,0.35
2023-01-04T08:17:44.737Z,0.35
2023-01-04T08:20:13.102Z,0.20
2023-01-04T08:22:41.361Z,0.22
2023-01-04T08:25:09.992Z,0.28
2023-01-04T08:27:38.417Z,0.30
2023-01-04T08:30:07.323Z,0.10
2023-01-04T08:32:35.747Z,0.40
2023-01-04T08:35:05.665Z,0.93
2023-01-04T08:37:35.439Z,0.52
2023-01-04T08:40:04.017Z,0.43
2023-01-04T08:42:32.365Z,0.65
2023-01-04T08:45:01.765Z,0.10
2023-01-04T08:47:30.362Z,0.68
2023-01-04T08:49:59.450Z,0.70
2023-01-04T08:52:30.716Z,0.52
2023-01-04T08:54:59.117Z,0.20
2023-01-04T08:57:27.637Z,0.40
2023-01-04T08:59:55.946Z,0.30
2023-01-04T09:02:25.254Z,0.40
2023-01-04T09:04:55.281Z,0.30
2023-01-04T09:07:23.680Z,0.30
2023-01-04T09:09:53.325Z,0.10
2023-01-04T09:12:21.592Z,0.38
2023-01-04T09:14:49.856Z,0.20
2023-01-04T09:17:18.178Z,0.20
2023-01-04T09:19:46.427Z,0.30
2023-01-04T09:22:14.778Z,0.50
2023-01-04T09:24:43.211Z,0.20
2023-01-04T09:27:12.830Z,0.22
2023-01-04T09:29:41.425Z,0.70
2023-01-04T09:32:16.113Z,0.10
2023-01-04T09:34:45.119Z,0.15
2023-01-04T09:37:13.429Z,0.47
2023-01-04T09:39:41.844Z,0.35
2023-01-04T09:42:18.176Z,0.17
2023-01-04T09:45:22.726Z,0.57
2023-01-04T09:47:38.417Z,0.50
2023-01-04T09:50:08.274Z,0.30
2023-01-04T09:52:42.329Z,0.85
2023-01-04T09:55:37.691Z,0.20
2023-01-04T09:58:02.843Z,0.60
2023-01-04T10:00:34.481Z,0.40
2023-01-04T10:03:07.227Z,0.28
2023-01-04T10:05:36.159Z,0.20
2023-01-04T10:08:04.821Z,0.38
2023-01-04T10:10:47.671Z,0.50
2023-01-04T10:13:21.712Z,0.40
2023-01-04T10:15:54.387Z,0.50
2023-01-04T10:21:34.435Z,0.63
2023-01-04T10:24:17.925Z,0.13
2023-01-04T10:26:47.707Z,0.45
2023-01-04T10:29:34.691Z,0.40
2023-01-04T10:32:04.476Z,0.80
2023-01-04T10:34:34.209Z,0.35
2023-01-04T10:37:06.005Z,0.22
2023-01-04T10:39:35.896Z,0.82
2023-01-04T10:42:11.997Z,0.25
2023-01-04T10:44:44.657Z,0.28
2023-01-04T10:47:15.068Z,0.32
2023-01-04T10:49:44.815Z,0.15
2023-01-04T10:52:15.578Z,0.22
2023-01-04T10:54:46.218Z,0.10
2023-01-04T10:57:16.673Z,0.43
2023-01-04T10:59:49.346Z,0.40
2023-01-04T11:02:20.531Z,0.20
2023-01-04T11:04:53.377Z,0.10
2023-01-04T11:07:23.769Z,0.20
2023-01-04T11:09:54.289Z,0.55
2023-01-04T11:12:24.055Z,0.32
2023-01-04T11:14:54.054Z,0.40
2023-01-04T11:17:23.290Z,0.20
2023-01-04T11:19:51.749Z,0.50
2023-01-04T11:22:21.774Z,0.20
2023-01-04T11:25:24.587Z,0.30
2023-01-04T11:27:43.807Z,0.40
2023-01-04T11:30:16.509Z,0.20
2023-01-04T11:32:48.163Z,0.40
2023-01-04T11:35:16.520Z,0.25
2023-01-04T11:37:44.789Z,0.10
2023-01-04T11:40:14.598Z,0.50
2023-01-04T11:42:42.916Z,0.20
2023-01-04T11:45:22.929Z,0.20
2023-01-04T11:47:52.556Z,0.10
2023-01-04T11:50:36.247Z,0.10
2023-01-04T11:53:04.957Z,0.20
2023-01-04T11:55:33.792Z,0.73
2023-01-04T11:58:08.862Z,0.10
2023-01-04T12:00:38.672Z,0.10
2023-01-04T12:03:14.915Z,0.28
2023-01-04T12:05:43.415Z,0.20
2023-01-04T12:08:15.756Z,0.00
2023-01-04T12:10:44.051Z,0.20
2023-01-04T12:13:12.316Z,0.10
2023-01-04T12:15:47.860Z,0.10
2023-01-04T12:18:18.650Z,0.10
2023-01-04T12:20:47.059Z,0.20
2023-01-04T12:23:15.569Z,0.32
2023-01-04T12:25:45.865Z,0.20
2023-01-04T12:28:29.130Z,0.10
2023-01-04T12:31:19.606Z,0.00
2023-01-04T12:33:50.113Z,0.17
2023-01-04T12:36:19.726Z,0.00
2023-01-04T12:39:07.872Z,0.10
2023-01-04T12:42:04.789Z,0.30
2023-01-04T12:44:52.138Z,0.10
2023-01-04T12:47:56.105Z,0.00
2023-01-04T12:50:27.670Z,0.10
2023-01-04T12:53:29.518Z,0.20
2023-01-04T12:55:55.021Z,0.15
2023-01-04T13:01:31.586Z,0.15
2023-01-04T13:04:05.612Z,0.10
2023-01-04T13:06:42.935Z,0.10
2023-01-04T13:09:18.826Z,0.57
2023-01-04T13:11:55.931Z,0.10
2023-01-04T13:14:29.915Z,0.08
2023-01-04T13:17:06.177Z,0.00
2023-01-04T13:19:34.615Z,0.00
2023-01-04T13:22:04.509Z,0.00
2023-01-04T13:24:34.221Z,0.20
2023-01-04T13:27:06.994Z,0.10
2023-01-04T13:29:36.017Z,0.15
2023-01-04T13:32:05.365Z,0.20
2023-01-04T13:34:34.429Z,0.20
2023-01-04T13:37:18.625Z,0.10
2023-01-04T13:39:48.525Z,0.30
2023-01-04T13:42:20.325Z,0.03
2023-01-04T13:45:22.294Z,0.05
2023-01-04T13:47:52.131Z,0.10
2023-01-04T13:50:27.983Z,0.13
2023-01-04T13:53:08.052Z,0.45
2023-01-04T13:55:38.407Z,0.00
2023-01-04T13:58:07.991Z,0.10
2023-01-04T14:00:42.688Z,0.00
2023-01-04T14:03:18.542Z,0.10
2023-01-04T14:05:48.572Z,0.13
2023-01-04T14:08:22.877Z,0.08
2023-01-04T14:10:51.425Z,0.30
2023-01-04T14:13:20.839Z,0.10
2023-01-04T14:15:49.256Z,0.13
2023-01-04T14:18:28.072Z,0.10
2023-01-04T14:20:56.391Z,0.15
2023-01-04T14:23:30.073Z,0.05
2023-01-04T14:25:58.388Z,0.50
2023-01-04T14:28:47.053Z,0.00
2023-01-04T14:31:27.318Z,0.10
2023-01-04T14:33:56.092Z,0.35
2023-01-04T14:36:26.842Z,0.30
2023-01-04T14:39:11.131Z,0.10
2023-01-04T14:41:40.144Z,0.10
2023-01-04T14:44:12.681Z,0.15
2023-01-04T14:46:43.633Z,0.32
2023-01-04T14:49:12.093Z,0.10
2023-01-04T14:51:43.240Z,0.10
2023-01-04T14:54:17.488Z,0.10
2023-01-04T14:56:48.977Z,0.20
2023-01-04T14:59:17.243Z,0.28
2023-01-04T15:01:45.650Z,0.00
2023-01-04T15:04:14.138Z,0.00
2023-01-04T15:06:48.768Z,0.00
2023-01-04T15:09:18.575Z,0.10
2023-01-04T15:11:46.982Z,0.00
2023-01-04T15:14:15.310Z,0.20
2023-01-04T15:16:44.020Z,0.10
2023-01-04T15:19:12.426Z,0.00
2023-01-04T15:21:41.880Z,0.00
2023-01-04T15:24:10.704Z,0.22
2023-01-04T15:26:40.914Z,0.10
2023-01-04T15:29:09.746Z,0.00
2023-01-04T15:31:40.465Z,0.20
2023-01-04T15:34:09.342Z,0.15
2023-01-04T15:36:40.903Z,0.00
2023-01-04T15:39:10.209Z,0.10
2023-01-04T15:41:56.314Z,0.13
2023-01-04T15:44:26.274Z,0.10
2023-01-04T15:46:54.802Z,0.10
2023-01-04T15:49:23.120Z,0.10
2023-01-04T15:51:51.392Z,0.10
2023-01-04T15:54:21.722Z,0.00
2023-01-04T15:56:50.256Z,0.10
2023-01-04T15:59:18.668Z,0.20
2023-01-04T16:01:48.581Z,0.10
2023-01-04T16:04:17.207Z,0.10
2023-01-04T16:06:45.412Z,0.10
2023-01-04T16:09:13.684Z,0.10
2023-01-04T16:12:02.053Z,0.10
2023-01-04T16:14:30.867Z,0.10
2023-01-04T16:17:00.961Z,0.28
2023-01-04T16:19:32.157Z,0.00
2023-01-04T16:22:00.466Z,0.10
2023-01-04T16:25:08.611Z,0.30
2023-01-04T16:27:17.041Z,0.17
2023-01-04T16:29:45.313Z,0.00
2023-01-04T16:32:14.930Z,0.10
2023-01-04T16:34:43.847Z,0.47
2023-01-04T16:37:12.182Z,0.10
2023-01-04T16:42:28.659Z,0.00
2023-01-04T16:44:56.885Z,0.10
2023-01-04T16:47:26.747Z,0.10
2023-01-04T16:49:55.289Z,0.10
2023-01-04T16:52:27.121Z,0.25
2023-01-04T16:54:55.430Z,0.10
2023-01-04T16:57:24.009Z,0.10
2023-01-04T16:59:52.281Z,0.03
2023-01-04T17:02:21.383Z,0.10
2023-01-04T17:04:55.344Z,0.10
2023-01-04T17:07:23.851Z,0.00
2023-01-04T17:09:52.203Z,0.20
2023-01-04T17:17:59.548Z,0.08
2023-01-04T17:20:29.221Z,0.10
2023-01-04T17:22:57.462Z,0.00
2023-01-04T17:25:25.807Z,0.10
2023-01-04T17:27:54.071Z,0.22
2023-01-04T17:30:22.321Z,0.10
2023-01-04T17:32:50.610Z,0.10
2023-01-04T17:35:18.966Z,0.32
2023-01-04T17:37:49.215Z,0.10
2023-01-04T17:40:22.603Z,0.10
2023-01-04T17:42:51.463Z,0.00
2023-01-04T17:45:19.874Z,0.10
2023-01-04T17:47:48.175Z,0.00
2023-01-04T17:50:18.064Z,0.10
2023-01-04T17:52:46.621Z,0.10
2023-01-04T17:55:16.688Z,0.00
2023-01-04T17:57:45.142Z,0.10
2023-01-04T18:00:14.879Z,0.25
2023-01-04T18:02:43.621Z,0.00
2023-01-04T18:05:12.511Z,0.00
2023-01-04T18:07:40.823Z,0.10
2023-01-04T18:10:20.751Z,0.55
2023-01-04T18:12:56.554Z,0.13
2023-01-04T18:15:24.814Z,0.10
2023-01-04T18:17:53.063Z,0.00
2023-01-04T18:20:25.028Z,0.00
2023-01-04T18:22:53.707Z,0.20
2023-01-04T18:25:22.140Z,0.17
2023-01-04T18:27:50.420Z,0.00
2023-01-04T18:30:20.136Z,0.10
2023-01-04T18:32:48.481Z,0.10
2023-01-04T18:35:16.903Z,0.30
2023-01-04T18:37:46.380Z,0.10
2023-01-04T18:40:14.624Z,0.15
2023-01-04T18:42:47.024Z,0.50
2023-01-04T18:45:15.238Z,0.17
2023-01-04T18:47:47.466Z,0.10
2023-01-04T18:50:15.943Z,0.00
2023-01-04T18:52:44.435Z,0.30
2023-01-04T18:55:13.246Z,0.10
2023-01-04T18:57:41.716Z,0.00
2023-01-04T19:00:11.952Z,0.10
2023-01-04T19:02:40.472Z,0.20
2023-01-04T19:05:11.648Z,0.10
2023-01-04T19:07:40.474Z,0.10
2023-01-04T19:10:09.186Z,0.10
2023-01-04T19:12:38.952Z,0.10
2023-01-04T19:15:08.246Z,0.08
2023-01-04T19:17:36.789Z,0.10
2023-01-04T19:20:05.487Z,0.10
2023-01-04T19:22:35.722Z,0.20
2023-01-04T19:25:04.090Z,0.10
2023-01-04T19:27:32.336Z,0.00
2023-01-04T19:30:00.882Z,0.20
2023-01-04T19:32:33.373Z,0.10
2023-01-04T19:35:02.036Z,0.30
2023-01-04T19:37:30.564Z,0.22
2023-01-04T19:40:00.477Z,0.10
2023-01-04T19:42:28.705Z,0.10
2023-01-04T19:44:56.957Z,0.10
2023-01-04T19:47:25.187Z,0.30
2023-01-04T19:49:53.467Z,0.10
2023-01-04T19:52:21.728Z,0.10
2023-01-04T19:54:50.128Z,0.17
2023-01-04T19:57:19.736Z,0.15
2023-01-04T19:59:47.987Z,0.10
2023-01-04T20:02:16.433Z,0.10
2023-01-04T20:04:44.832Z,0.10
2023-01-04T20:07:13.212Z,0.10
2023-01-04T20:09:41.559Z,0.10
2023-01-04T20:12:10.170Z,0.10
2023-01-04T20:14:39.875Z,0.00
2023-01-04T20:17:08.302Z,0.20
2023-01-04T20:19:36.751Z,0.10
2023-01-04T20:22:05.081Z,0.20
2023-01-04T20:24:34.143Z,0.20
2023-01-04T20:27:02.412Z,0.10
2023-01-04T20:29:30.747Z,0.20
2023-01-04T20:32:01.584Z,0.25
2023-01-04T20:34:29.893Z,0.10
2023-01-04T20:36:58.154Z,0.10
2023-01-04T20:39:26.430Z,0.10
2023-01-04T20:42:12.558Z,0.30
2023-01-04T20:44:40.788Z,0.10
2023-01-04T20:47:10.497Z,0.05
2023-01-04T20:49:38.739Z,0.03
2023-01-04T20:52:07.155Z,0.17
2023-01-04T20:54:35.611Z,0.17
2023-01-04T20:57:04.407Z,0.03
2023-01-04T20:59:32.658Z,0.08
2023-01-04T21:02:03.239Z,0.10
2023-01-04T21:04:33.077Z,0.10
2023-01-04T21:07:01.430Z,0.08
2023-01-04T21:09:29.721Z,0.17
2023-01-04T21:12:03.335Z,0.10
2023-01-04T21:14:38.029Z,0.17
2023-01-04T21:17:06.402Z,0.00
2023-01-04T21:19:36.136Z,0.10
2023-01-04T21:22:04.381Z,0.10
2023-01-04T21:24:33.498Z,0.57
2023-01-04T21:27:02.035Z,0.08
2023-01-04T21:29:30.464Z,0.10
2023-01-04T21:31:59.096Z,0.20
2023-01-04T21:34:28.097Z,0.00
2023-01-04T21:36:57.825Z,0.00
2023-01-04T21:39:26.558Z,0.20
2023-01-04T21:41:55.116Z,0.03
2023-01-04T21:44:23.642Z,0.10
2023-01-04T21:46:52.474Z,0.10
2023-01-04T21:49:21.258Z,0.10
2023-01-04T21:51:49.858Z,0.20
2023-01-04T21:54:19.936Z,0.15
2023-01-04T21:56:48.376Z,0.20
2023-01-04T21:59:17.062Z,0.10
2023-01-04T22:01:45.550Z,0.10
2023-01-04T22:04:14.178Z,0.10
2023-01-04T22:06:42.424Z,0.20
2023-01-04T22:09:10.836Z,0.10
2023-01-04T22:11:40.883Z,0.20
2023-01-04T22:14:09.256Z,0.30
2023-01-04T22:16:37.625Z,0.00
2023-01-04T22:19:05.904Z,0.30
2023-01-04T22:21:34.186Z,0.10
2023-01-04T22:24:02.563Z,0.10
2023-01-04T22:26:30.854Z,0.10
2023-01-04T22:29:00.491Z,0.10
2023-01-04T22:31:29.185Z,0.20
2023-01-04T22:33:57.574Z,0.13
2023-01-04T22:36:25.929Z,0.10
2023-01-04T22:38:54.747Z,0.10
2023-01-04T22:41:23.475Z,0.10
2023-01-04T22:43:55.712Z,0.20
2023-01-04T22:46:26.007Z,0.10
2023-01-04T22:48:54.466Z,0.00
2023-01-04T22:51:23.434Z,0.10
2023-01-04T22:53:54.736Z,0.00
2023-01-04T22:56:23.595Z,0.10
2023-01-04T22:58:54.343Z,0.10
2023-01-04T23:01:23.210Z,0.10
2023-01-04T23:03:53.264Z,0.10
2023-01-04T23:06:22.412Z,0.15
2023-01-04T23:08:55.823Z,0.10
2023-01-04T23:11:24.212Z,0.10
2023-01-04T23:13:52.618Z,0.10
2023-01-04T23:16:24.807Z,0.10
2023-01-04T23:18:57.639Z,0.15
2023-01-04T23:21:26.095Z,0.00
2023-01-04T23:23:54.327Z,0.10
2023-01-04T23:26:24.773Z,0.00
2023-01-04T23:28:53.356Z,0.20
2023-01-04T23:31:22.826Z,0.45
2023-01-04T23:33:53.739Z,0.00
2023-01-04T23:36:24.741Z,0.00
2023-01-04T23:38:53.990Z,0.30
2023-01-04T23:41:42.712Z,0.00
2023-01-04T23:44:12.493Z,0.10
2023-01-04T23:46:40.706Z,0.13
2023-01-04T23:49:08.949Z,0.20
2023-01-04T23:51:38.788Z,0.10
2023-01-04T23:54:08.353Z,0.10
2023-01-04T23:56:36.826Z,0.10
2023-01-04T23:59:05.025Z,0.10
